Time;durP1;ratioP1;P1;durP2;ratioP2;P2;SDS_P1;SDS_P2;PMS_P1;PMS_P2;Temp;Humidity;BMP_temperature;BMP_pressure;BME280_temperature;BME280_humidity;BME280_pressure;Samples;Min_cycle;Max_cycle;Signal;HPM_P1;HPM_P2
2023/07/15 00:00:52;;;;;;;5.78;4.45;;;19.70;99.90;;;;;;5101113;28;20059;-79
2023/07/15 00:03:21;;;;;;;9.77;4.72;;;19.70;99.90;;;;;;5122193;28;20046;-78
2023/07/15 00:05:48;;;;;;;9.30;4.38;;;19.70;99.90;;;;;;5117607;28;20043;-80
2023/07/15 00:08:14;;;;;;;8.00;3.87;;;19.70;99.90;;;;;;5080371;28;20062;-79
2023/07/15 00:10:46;;;;;;;9.82;4.57;;;19.70;99.90;;;;;;5094263;28;20097;-79
2023/07/15 00:13:18;;;;;;;7.40;4.10;;;19.70;99.90;;;;;;5082436;28;20413;-78
2023/07/15 00:15:47;;;;;;;8.25;4.35;;;19.70;99.90;;;;;;5095518;28;20054;-79
2023/07/15 00:18:14;;;;;;;12.48;4.13;;;19.70;99.90;;;;;;5078277;28;20071;-79
2023/07/15 00:20:41;;;;;;;6.15;3.90;;;19.70;99.90;;;;;;5080030;28;20051;-79
2023/07/15 00:23:21;;;;;;;5.90;3.95;;;19.70;99.90;;;;;;5116152;28;20042;-79
2023/07/15 00:25:47;;;;;;;7.30;4.25;;;19.70;99.90;;;;;;5114165;28;20385;-79
2023/07/15 00:28:13;;;;;;;6.65;4.13;;;19.70;99.90;;;;;;5111447;28;20517;-78
2023/07/15 00:30:39;;;;;;;6.72;3.80;;;19.70;99.90;;;;;;5115981;28;20036;-77
2023/07/15 00:33:08;;;;;;;8.15;3.65;;;19.80;99.90;;;;;;5077969;28;20027;-79
2023/07/15 00:35:34;;;;;;;7.43;3.60;;;19.80;99.90;;;;;;5094966;28;20418;-77
2023/07/15 00:38:00;;;;;;;9.02;3.75;;;19.80;99.90;;;;;;5115948;28;20154;-79
2023/07/15 00:40:27;;;;;;;7.38;3.78;;;19.80;99.90;;;;;;5115329;28;20516;-78
2023/07/15 00:43:30;;;;;;;5.40;3.43;;;19.80;99.90;;;;;;5109388;28;20058;-79
2023/07/15 00:46:26;;;;;;;8.75;4.20;;;19.80;99.90;;;;;;5115482;28;20624;-80
2023/07/15 00:49:21;;;;;;;6.30;3.95;;;19.80;99.90;;;;;;5083172;28;20126;-79
2023/07/15 00:52:20;;;;;;;6.75;3.75;;;19.80;99.90;;;;;;5110108;28;20078;-80
2023/07/15 00:54:50;;;;;;;7.88;4.50;;;19.80;99.90;;;;;;5093761;28;20119;-78
2023/07/15 00:57:17;;;;;;;10.23;4.40;;;19.90;99.90;;;;;;5111720;28;20036;-77
2023/07/15 00:59:48;;;;;;;10.38;3.97;;;19.90;99.90;;;;;;5111235;28;20130;-78
2023/07/15 01:02:15;;;;;;;7.10;3.75;;;19.90;99.90;;;;;;5095509;28;20080;-78
2023/07/15 01:04:41;;;;;;;10.40;4.43;;;19.90;99.90;;;;;;5108245;28;20127;-76
2023/07/15 01:07:08;;;;;;;7.03;3.50;;;19.90;99.90;;;;;;5108630;28;20052;-78
2023/07/15 01:09:34;;;;;;;8.77;3.93;;;19.90;99.90;;;;;;5094028;28;20047;-78
2023/07/15 01:12:04;;;;;;;11.95;4.20;;;19.90;99.90;;;;;;5112981;28;20036;-79
2023/07/15 01:14:30;;;;;;;13.95;4.43;;;19.90;99.90;;;;;;5111034;28;20096;-80
2023/07/15 01:16:56;;;;;;;9.88;4.05;;;19.90;99.90;;;;;;5073797;28;20048;-77
2023/07/15 01:19:22;;;;;;;12.50;4.43;;;19.90;99.90;;;;;;5091162;28;20038;-78
2023/07/15 01:21:49;;;;;;;12.18;3.65;;;19.90;99.90;;;;;;5092662;28;20042;-78
2023/07/15 01:24:16;;;;;;;10.15;4.03;;;19.90;99.90;;;;;;5112377;28;20035;-78
2023/07/15 01:26:42;;;;;;;8.02;3.92;;;19.90;99.90;;;;;;5111295;28;20113;-77
2023/07/15 01:29:08;;;;;;;9.18;5.00;;;19.90;99.90;;;;;;5096421;28;20047;-79
2023/07/15 01:31:34;;;;;;;9.32;3.90;;;19.80;99.90;;;;;;5092131;28;20127;-80
2023/07/15 01:34:00;;;;;;;9.93;4.22;;;19.80;99.90;;;;;;5095130;28;20119;-78
2023/07/15 01:36:26;;;;;;;10.40;3.92;;;19.80;99.90;;;;;;5112273;28;20123;-79
2023/07/15 01:38:52;;;;;;;6.82;3.30;;;19.70;99.90;;;;;;5093063;28;20044;-78
2023/07/15 01:41:18;;;;;;;6.80;4.07;;;19.70;99.90;;;;;;5115108;28;20083;-77
2023/07/15 01:43:44;;;;;;;10.27;4.13;;;19.70;99.90;;;;;;5095071;28;20039;-78
2023/07/15 01:46:10;;;;;;;11.60;4.15;;;19.70;99.90;;;;;;5090672;28;20038;-78
2023/07/15 01:48:36;;;;;;;7.35;3.60;;;19.60;99.90;;;;;;5116268;28;20043;-76
2023/07/15 01:51:01;;;;;;;11.05;4.05;;;19.60;99.90;;;;;;5122219;28;20047;-79
2023/07/15 01:53:27;;;;;;;8.90;4.35;;;19.60;99.90;;;;;;5116121;28;20038;-79
2023/07/15 01:55:53;;;;;;;9.57;3.60;;;19.60;99.90;;;;;;5089731;28;20036;-78
2023/07/15 01:58:20;;;;;;;8.60;4.07;;;19.60;99.90;;;;;;5107292;28;20510;-78
2023/07/15 02:00:46;;;;;;;6.93;3.90;;;19.60;99.90;;;;;;5104145;28;20464;-77
2023/07/15 02:03:12;;;;;;;6.93;3.80;;;19.60;99.90;;;;;;5107715;28;20063;-78
2023/07/15 02:05:37;;;;;;;6.10;3.85;;;19.60;99.90;;;;;;5072484;28;20366;-79
2023/07/15 02:08:03;;;;;;;7.50;3.65;;;19.60;99.90;;;;;;5107114;28;20044;-79
2023/07/15 02:10:30;;;;;;;7.28;3.50;;;19.50;99.90;;;;;;5090400;28;20031;-79
2023/07/15 02:12:56;;;;;;;7.57;3.35;;;19.60;99.90;;;;;;5109712;28;20089;-78
2023/07/15 02:15:24;;;;;;;8.45;3.47;;;19.60;99.90;;;;;;5090049;28;20397;-79
2023/07/15 02:17:50;;;;;;;8.30;3.55;;;19.60;99.90;;;;;;5107687;28;20425;-79
2023/07/15 02:20:15;;;;;;;7.10;3.88;;;19.60;99.90;;;;;;5108193;28;20028;-80
2023/07/15 02:22:42;;;;;;;8.65;3.70;;;19.50;99.90;;;;;;5091278;28;20047;-78
2023/07/15 02:25:08;;;;;;;8.43;3.42;;;19.50;99.90;;;;;;5074488;28;20044;-78
2023/07/15 02:27:34;;;;;;;6.28;3.30;;;19.50;99.90;;;;;;5089313;28;20390;-79
2023/07/15 02:30:00;;;;;;;10.60;3.97;;;19.50;99.90;;;;;;5113279;28;20032;-78
2023/07/15 02:32:41;;;;;;;5.38;3.20;;;19.50;99.90;;;;;;5111577;28;20128;-78
2023/07/15 02:35:09;;;;;;;8.40;3.40;;;19.50;99.90;;;;;;5076010;28;20102;-78
2023/07/15 02:37:36;;;;;;;7.55;3.15;;;19.50;99.90;;;;;;5078389;28;20044;-76
2023/07/15 02:40:06;;;;;;;6.30;3.30;;;19.40;99.90;;;;;;5107075;28;20075;-77
2023/07/15 02:42:36;;;;;;;4.68;2.95;;;19.40;99.90;;;;;;5092475;28;20035;-78
2023/07/15 02:45:06;;;;;;;7.68;2.95;;;19.40;99.90;;;;;;5101677;28;20124;-78
2023/07/15 02:47:35;;;;;;;5.53;3.03;;;19.40;99.90;;;;;;5104401;28;20047;-77
2023/07/15 02:50:04;;;;;;;7.35;3.25;;;19.40;99.90;;;;;;5105635;28;20039;-78
2023/07/15 02:52:32;;;;;;;5.40;3.10;;;19.40;99.90;;;;;;5106043;28;20040;-78
2023/07/15 02:54:59;;;;;;;6.75;3.20;;;19.40;99.90;;;;;;5108164;28;20043;-78
2023/07/15 02:57:25;;;;;;;7.60;2.88;;;19.50;99.90;;;;;;5106084;28;20103;-78
2023/07/15 02:59:51;;;;;;;8.90;3.17;;;19.50;99.90;;;;;;5111694;28;20049;-77
2023/07/15 03:02:16;;;;;;;6.05;2.80;;;19.50;99.90;;;;;;5107398;28;20079;-79
2023/07/15 03:04:42;;;;;;;8.73;2.90;;;19.50;99.90;;;;;;5106632;28;20040;-79
2023/07/15 03:07:09;;;;;;;5.45;2.83;;;19.60;99.90;;;;;;5088297;28;20052;-78
2023/07/15 03:09:36;;;;;;;7.13;2.92;;;19.50;99.90;;;;;;5108450;28;20425;-78
2023/07/15 03:12:03;;;;;;;8.17;2.83;;;19.60;99.90;;;;;;5105078;28;20055;-78
2023/07/15 03:14:29;;;;;;;6.25;2.85;;;19.60;99.90;;;;;;5112168;28;20401;-77
2023/07/15 03:16:54;;;;;;;4.75;2.42;;;19.70;99.90;;;;;;5115782;28;20039;-80
2023/07/15 03:19:23;;;;;;;8.18;3.08;;;19.70;99.90;;;;;;5112520;28;20043;-79
2023/07/15 03:21:49;;;;;;;5.30;2.40;;;19.70;99.90;;;;;;5112318;28;20089;-78
2023/07/15 03:24:14;;;;;;;4.38;2.50;;;19.80;99.90;;;;;;5113955;28;20032;-79
2023/07/15 03:26:40;;;;;;;5.32;2.40;;;19.80;99.90;;;;;;5117062;28;20071;-78
2023/07/15 03:29:08;;;;;;;7.88;2.45;;;19.80;99.90;;;;;;5112036;28;20473;-77
2023/07/15 03:31:35;;;;;;;5.50;2.58;;;19.90;99.90;;;;;;5096957;28;20043;-78
2023/07/15 03:34:01;;;;;;;6.70;3.13;;;19.90;99.90;;;;;;5113416;28;20048;-78
2023/07/15 03:36:27;;;;;;;10.80;2.67;;;20.00;99.90;;;;;;5114677;28;20393;-79
2023/07/15 03:38:52;;;;;;;9.05;3.03;;;20.00;99.90;;;;;;5095378;28;20043;-78
2023/07/15 03:41:18;;;;;;;5.30;2.67;;;20.00;99.90;;;;;;5112906;28;20057;-79
2023/07/15 03:43:47;;;;;;;6.05;2.65;;;20.00;99.90;;;;;;5115240;28;20047;-79
2023/07/15 03:46:15;;;;;;;6.35;2.80;;;20.00;99.90;;;;;;5114705;28;20039;-78
2023/07/15 03:48:41;;;;;;;7.72;2.70;;;20.00;99.90;;;;;;5115841;28;20084;-79
2023/07/15 03:51:07;;;;;;;7.53;2.70;;;20.00;99.90;;;;;;5091858;28;20040;-78
2023/07/15 03:53:32;;;;;;;9.02;2.92;;;20.00;99.90;;;;;;5093977;28;20044;-78
2023/07/15 03:55:59;;;;;;;12.55;2.95;;;20.10;99.90;;;;;;5110442;28;20037;-78
2023/07/15 03:58:25;;;;;;;4.45;2.70;;;20.00;99.90;;;;;;5114743;28;20071;-78
2023/07/15 04:00:51;;;;;;;7.38;2.70;;;20.00;99.90;;;;;;5113655;28;20047;-78
2023/07/15 04:03:16;;;;;;;6.50;2.95;;;20.00;99.90;;;;;;5109683;28;20051;-77
2023/07/15 04:05:42;;;;;;;5.95;2.45;;;20.00;99.90;;;;;;5094436;28;20081;-79
2023/07/15 04:08:08;;;;;;;6.32;2.67;;;20.00;99.90;;;;;;5095681;28;20040;-77
2023/07/15 04:10:33;;;;;;;4.50;2.28;;;19.90;99.90;;;;;;5106472;28;20092;-79
2023/07/15 04:12:59;;;;;;;6.18;2.53;;;19.90;99.90;;;;;;5113232;28;20047;-78
2023/07/15 04:15:25;;;;;;;8.18;2.55;;;19.90;99.90;;;;;;5093558;28;20036;-78
2023/07/15 04:17:50;;;;;;;5.15;2.58;;;19.90;99.90;;;;;;5082261;28;20393;-79
2023/07/15 04:20:17;;;;;;;5.10;2.42;;;19.90;99.90;;;;;;5116798;28;20451;-78
2023/07/15 04:22:43;;;;;;;5.60;2.75;;;19.90;99.90;;;;;;5092124;28;20047;-78
2023/07/15 04:25:14;;;;;;;5.05;2.70;;;19.80;99.90;;;;;;5090800;28;20114;-79
2023/07/15 04:27:40;;;;;;;5.57;2.75;;;19.80;99.90;;;;;;5115414;28;20040;-80
2023/07/15 04:30:08;;;;;;;7.72;2.50;;;19.80;99.90;;;;;;5116211;28;20055;-78
2023/07/15 04:32:34;;;;;;;5.05;2.67;;;19.80;99.90;;;;;;5099188;28;20048;-80
2023/07/15 04:35:03;;;;;;;9.82;2.80;;;19.80;99.90;;;;;;5099566;28;20055;-80
2023/07/15 04:37:29;;;;;;;10.13;2.85;;;19.90;99.90;;;;;;5087124;28;20039;-79
2023/07/15 04:39:55;;;;;;;4.93;2.70;;;19.80;99.90;;;;;;5108598;28;20044;-79
2023/07/15 04:42:20;;;;;;;7.30;2.97;;;19.80;99.90;;;;;;5107455;28;20105;-79
2023/07/15 04:44:46;;;;;;;3.97;2.45;;;19.80;99.90;;;;;;5086678;28;20405;-78
2023/07/15 04:47:13;;;;;;;8.05;2.60;;;19.90;99.90;;;;;;5105971;28;20113;-79
2023/07/15 04:49:39;;;;;;;6.78;2.67;;;19.90;99.90;;;;;;5089878;28;20466;-79
2023/07/15 04:52:05;;;;;;;4.30;2.50;;;19.90;99.90;;;;;;5107868;28;20038;-79
2023/07/15 04:54:34;;;;;;;4.32;2.50;;;19.90;99.90;;;;;;5105580;28;20071;-77
2023/07/15 04:56:59;;;;;;;8.13;3.08;;;20.00;99.90;;;;;;5111972;28;20032;-79
2023/07/15 04:59:25;;;;;;;7.50;2.88;;;20.00;99.90;;;;;;5112540;28;20079;-79
2023/07/15 05:01:51;;;;;;;8.23;3.08;;;20.00;99.90;;;;;;5093065;28;20067;-80
2023/07/15 05:04:17;;;;;;;8.77;3.10;;;20.10;99.90;;;;;;5110893;28;20047;-78
2023/07/15 05:06:43;;;;;;;5.25;2.63;;;20.20;99.90;;;;;;5095358;28;20485;-80
2023/07/15 05:09:10;;;;;;;6.18;2.38;;;20.30;99.90;;;;;;5097495;28;20070;-79
2023/07/15 05:11:35;;;;;;;5.33;2.73;;;20.30;99.90;;;;;;5104172;28;20043;-80
2023/07/15 05:14:01;;;;;;;8.73;2.88;;;20.30;99.90;;;;;;5073876;28;20040;-79
2023/07/15 05:16:27;;;;;;;7.72;3.00;;;20.30;99.90;;;;;;5090609;28;20070;-80
2023/07/15 05:18:53;;;;;;;5.38;2.70;;;20.30;99.90;;;;;;5108145;28;20051;-79
2023/07/15 05:21:19;;;;;;;5.05;2.60;;;20.40;99.90;;;;;;5074475;28;20047;-79
2023/07/15 05:23:46;;;;;;;6.00;3.00;;;20.40;99.90;;;;;;5114334;28;20118;-80
2023/07/15 05:26:11;;;;;;;10.07;3.15;;;20.50;99.90;;;;;;5091313;28;20062;-79
2023/07/15 05:28:38;;;;;;;11.40;3.28;;;20.50;99.90;;;;;;5113261;28;20035;-79
2023/07/15 05:31:04;;;;;;;11.27;2.92;;;20.50;99.90;;;;;;5105940;28;20402;-79
2023/07/15 05:33:30;;;;;;;5.05;2.42;;;20.60;99.90;;;;;;5108885;28;20039;-79
2023/07/15 05:35:56;;;;;;;8.23;2.80;;;20.70;99.90;;;;;;5094867;28;20036;-79
2023/07/15 05:38:24;;;;;;;8.95;2.55;;;20.80;99.90;;;;;;5117076;28;20065;-80
2023/07/15 05:40:53;;;;;;;4.55;2.60;;;20.80;99.90;;;;;;5115695;28;20016;-79
2023/07/15 05:43:19;;;;;;;7.32;3.00;;;21.00;99.90;;;;;;5115007;28;20059;-80
2023/07/15 05:45:45;;;;;;;5.40;3.03;;;21.00;99.90;;;;;;5110793;28;20101;-80
2023/07/15 05:48:14;;;;;;;4.13;2.70;;;21.10;99.90;;;;;;5096021;28;20092;-79
2023/07/15 05:50:43;;;;;;;5.75;2.80;;;21.30;99.90;;;;;;5094847;28;20493;-80
2023/07/15 05:53:08;;;;;;;7.47;2.88;;;21.40;99.90;;;;;;5091015;28;20043;-80
2023/07/15 05:55:38;;;;;;;8.05;3.08;;;21.60;99.90;;;;;;5095911;28;20125;-79
2023/07/15 05:58:09;;;;;;;5.05;2.78;;;21.80;99.90;;;;;;5114336;28;20117;-80
2023/07/15 06:00:40;;;;;;;7.05;2.80;;;22.00;99.90;;;;;;5097479;28;20043;-80
2023/07/15 06:03:06;;;;;;;8.73;3.25;;;22.10;99.90;;;;;;5100960;28;20057;-81
2023/07/15 06:05:34;;;;;;;9.88;3.20;;;22.20;99.90;;;;;;5102717;28;20066;-80
2023/07/15 06:08:00;;;;;;;6.13;2.40;;;22.40;99.90;;;;;;5114485;28;20036;-82
2023/07/15 06:10:26;;;;;;;8.85;2.83;;;22.60;99.90;;;;;;5096069;28;20113;-79
2023/07/15 06:12:51;;;;;;;16.52;3.83;;;22.80;99.90;;;;;;5115819;28;20039;-80
2023/07/15 06:15:17;;;;;;;5.53;2.70;;;23.10;99.90;;;;;;5112218;28;20032;-79
2023/07/15 06:17:43;;;;;;;6.93;2.70;;;23.30;99.90;;;;;;5113711;28;20493;-80
2023/07/15 06:20:09;;;;;;;6.60;2.60;;;23.40;99.90;;;;;;5116237;28;20051;-81
2023/07/15 06:22:35;;;;;;;7.78;2.45;;;23.60;99.90;;;;;;5078049;28;20423;-78
2023/07/15 06:25:01;;;;;;;7.20;2.78;;;23.70;99.90;;;;;;5114092;28;20071;-79
2023/07/15 06:27:26;;;;;;;10.60;2.60;;;23.60;99.90;;;;;;5112140;28;20298;-79
2023/07/15 06:29:55;;;;;;;8.10;2.58;;;23.60;99.90;;;;;;5108688;28;20035;-79
2023/07/15 06:32:21;;;;;;;7.90;2.90;;;23.50;99.90;;;;;;5095607;28;20028;-79
2023/07/15 06:34:46;;;;;;;5.95;2.70;;;23.40;99.90;;;;;;5117133;28;20558;-77
2023/07/15 06:37:12;;;;;;;6.80;2.65;;;23.20;99.90;;;;;;5095726;28;20036;-79
2023/07/15 06:39:38;;;;;;;7.20;2.90;;;23.10;99.90;;;;;;5096636;28;20085;-78
2023/07/15 06:42:04;;;;;;;5.25;2.75;;;23.00;99.90;;;;;;5112759;28;20079;-78
2023/07/15 06:44:30;;;;;;;7.95;3.13;;;23.00;99.90;;;;;;5114716;28;20206;-78
2023/07/15 06:46:55;;;;;;;5.43;2.60;;;23.00;99.90;;;;;;5109315;28;20085;-79
2023/07/15 06:49:21;;;;;;;6.90;2.72;;;23.00;99.90;;;;;;5115228;28;20039;-78
2023/07/15 06:51:47;;;;;;;5.10;3.00;;;23.10;99.90;;;;;;5117764;28;20044;-79
2023/07/15 06:54:13;;;;;;;7.63;2.78;;;23.20;99.90;;;;;;5099151;28;20405;-78
2023/07/15 06:56:38;;;;;;;4.55;2.50;;;23.30;99.90;;;;;;5068010;28;20127;-78
2023/07/15 06:59:04;;;;;;;6.80;2.58;;;23.30;99.90;;;;;;5122033;28;20039;-80
2023/07/15 07:01:30;;;;;;;7.72;2.65;;;23.30;99.90;;;;;;5120762;28;20047;-79
2023/07/15 07:03:55;;;;;;;9.60;2.60;;;23.20;99.90;;;;;;5125134;28;20044;-81
2023/07/15 07:06:21;;;;;;;10.00;2.70;;;23.30;99.90;;;;;;5107037;28;20059;-79
2023/07/15 07:08:47;;;;;;;9.18;2.72;;;23.30;99.90;;;;;;5099964;28;20058;-80
2023/07/15 07:11:13;;;;;;;6.32;2.45;;;23.30;99.90;;;;;;5086047;28;20123;-80
2023/07/15 07:13:38;;;;;;;5.40;2.38;;;23.40;99.90;;;;;;5099370;28;20086;-79
2023/07/15 07:16:05;;;;;;;5.70;2.75;;;23.60;99.90;;;;;;5080998;28;20509;-79
2023/07/15 07:18:30;;;;;;;7.97;2.58;;;23.70;99.90;;;;;;5099287;28;20033;-78
2023/07/15 07:20:57;;;;;;;12.20;2.60;;;23.80;99.90;;;;;;5104175;28;20052;-79
2023/07/15 07:23:22;;;;;;;3.88;2.50;;;23.80;99.90;;;;;;5095412;28;20092;-79
2023/07/15 07:25:49;;;;;;;4.60;2.85;;;24.00;99.90;;;;;;5074055;28;20071;-79
2023/07/15 07:28:15;;;;;;;9.57;2.50;;;24.10;99.90;;;;;;5097266;28;20127;-79
2023/07/15 07:30:41;;;;;;;9.75;2.45;;;24.20;99.90;;;;;;5076134;28;20481;-80
2023/07/15 07:33:06;;;;;;;4.78;2.40;;;24.20;99.90;;;;;;5095648;28;20077;-80
2023/07/15 07:35:32;;;;;;;5.78;2.30;;;24.30;99.90;;;;;;5098939;28;20061;-78
2023/07/15 07:37:58;;;;;;;8.52;2.38;;;24.50;99.90;;;;;;5104445;28;20043;-79
2023/07/15 07:40:24;;;;;;;9.70;2.42;;;24.60;99.90;;;;;;5094003;28;20113;-80
2023/07/15 07:42:49;;;;;;;5.63;2.38;;;24.60;99.90;;;;;;5101556;28;20127;-80
2023/07/15 07:45:34;;;;;;;5.65;2.30;;;24.60;99.90;;;;;;5099580;28;20028;-81
2023/07/15 07:47:59;;;;;;;7.15;2.13;;;24.70;99.90;;;;;;5100216;28;20055;-79
2023/07/15 07:50:26;;;;;;;5.40;1.90;;;24.80;99.90;;;;;;5097051;28;20048;-79
2023/07/15 07:52:52;;;;;;;4.40;2.33;;;25.00;99.90;;;;;;5079481;28;20047;-79
2023/07/15 07:55:17;;;;;;;5.82;2.13;;;25.00;99.90;;;;;;5098915;28;20039;-79
2023/07/15 07:57:43;;;;;;;8.20;2.63;;;25.10;99.80;;;;;;5077280;28;20116;-79
2023/07/15 08:00:10;;;;;;;7.63;2.30;;;25.10;99.70;;;;;;5098988;28;20052;-78
2023/07/15 08:02:35;;;;;;;5.55;2.08;;;25.00;99.40;;;;;;5087429;28;20129;-78
2023/07/15 08:05:01;;;;;;;5.45;2.20;;;24.90;99.40;;;;;;5099417;28;20040;-77
2023/07/15 08:07:27;;;;;;;5.10;2.22;;;24.90;99.20;;;;;;5102759;28;20052;-79
2023/07/15 08:09:52;;;;;;;4.85;2.35;;;24.80;99.40;;;;;;5104208;28;20048;-78
2023/07/15 08:12:18;;;;;;;4.75;2.30;;;24.80;99.50;;;;;;5102763;28;20031;-79
2023/07/15 08:14:44;;;;;;;6.13;2.55;;;24.80;99.60;;;;;;5118285;28;20130;-80
2023/07/15 08:17:09;;;;;;;6.82;2.30;;;24.80;99.60;;;;;;5094352;28;20032;-78
2023/07/15 08:19:35;;;;;;;7.68;2.42;;;24.80;99.50;;;;;;5111840;28;20039;-79
2023/07/15 08:22:01;;;;;;;5.38;2.72;;;24.80;99.50;;;;;;5099970;28;20035;-79
2023/07/15 08:24:26;;;;;;;6.85;2.13;;;24.90;99.60;;;;;;5095714;28;20096;-80
2023/07/15 08:26:52;;;;;;;9.75;2.90;;;25.00;99.90;;;;;;5084837;28;20563;-80
2023/07/15 08:29:18;;;;;;;6.43;2.33;;;25.30;99.90;;;;;;5112592;28;20414;-80
2023/07/15 08:31:44;;;;;;;5.53;3.05;;;25.50;99.70;;;;;;5090837;28;20096;-80
2023/07/15 08:34:10;;;;;;;4.85;2.33;;;25.70;99.60;;;;;;5094989;28;20040;-79
2023/07/15 08:36:37;;;;;;;5.68;2.20;;;25.80;99.20;;;;;;5113567;28;20039;-78
2023/07/15 08:39:02;;;;;;;2.97;1.90;;;25.80;98.90;;;;;;5115233;28;20130;-78
2023/07/15 08:41:28;;;;;;;7.75;1.70;;;25.90;99.10;;;;;;5115159;28;20059;-79
2023/07/15 08:43:54;;;;;;;4.50;1.90;;;26.00;98.50;;;;;;5099657;28;20040;-80
2023/07/15 08:46:28;;;;;;;3.05;1.58;;;26.10;98.60;;;;;;5115813;28;20401;-80
2023/07/15 08:48:58;;;;;;;8.15;2.00;;;26.10;97.80;;;;;;5099441;28;20028;-81
2023/07/15 08:51:33;;;;;;;4.30;1.65;;;26.00;97.50;;;;;;5109745;28;20059;-79
2023/07/15 08:54:00;;;;;;;5.78;1.70;;;25.80;97.30;;;;;;5094434;28;20051;-79
2023/07/15 08:56:27;;;;;;;;;;;25.70;97.30;;;;;;5114799;28;20040;-80
2023/07/15 08:58:54;;;;;;;5.65;1.77;;;25.60;97.70;;;;;;5119715;28;19924;-80
2023/07/15 09:01:20;;;;;;;3.97;1.90;;;25.60;98.40;;;;;;5101059;28;20088;-79
2023/07/15 09:03:46;;;;;;;10.65;1.90;;;25.80;98.00;;;;;;5081290;28;20289;-80
2023/07/15 09:06:14;;;;;;;6.30;2.17;;;26.00;98.10;;;;;;5096366;28;20039;-80
2023/07/15 09:08:42;;;;;;;3.10;1.50;;;26.10;97.80;;;;;;5081160;28;20047;-80
2023/07/15 09:11:11;;;;;;;9.55;2.10;;;26.30;97.80;;;;;;5080635;28;20124;-81
2023/07/15 09:13:36;;;;;;;4.10;1.52;;;26.40;97.50;;;;;;5094440;28;20044;-78
2023/07/15 09:16:03;;;;;;;4.72;2.10;;;26.40;98.10;;;;;;5120088;28;20141;-79
2023/07/15 09:18:29;;;;;;;3.70;1.70;;;26.40;97.60;;;;;;5095301;28;20075;-80
2023/07/15 09:21:16;;;;;;;2.05;1.40;;;26.50;97.40;;;;;;5105455;28;20132;-79
2023/07/15 09:23:44;;;;;;;3.28;1.70;;;26.50;97.40;;;;;;5121381;28;20050;-79
2023/07/15 09:26:11;;;;;;;3.22;1.88;;;26.30;97.60;;;;;;5118213;28;20107;-80
2023/07/15 09:28:38;;;;;;;4.57;2.07;;;26.40;97.10;;;;;;5105325;28;20036;-80
2023/07/15 09:31:04;;;;;;;4.32;2.05;;;26.30;97.40;;;;;;5103386;28;20081;-79
2023/07/15 09:33:39;;;;;;;4.13;2.03;;;26.20;97.60;;;;;;5103399;28;20043;-81
2023/07/15 09:36:06;;;;;;;4.05;1.95;;;26.20;97.50;;;;;;5110549;28;20558;-79
2023/07/15 09:38:39;;;;;;;5.83;2.20;;;26.00;97.70;;;;;;5119863;28;20050;-82
2023/07/15 09:41:08;;;;;;;4.63;1.80;;;26.20;98.00;;;;;;5105427;28;20104;-80
2023/07/15 09:43:50;;;;;;;2.75;1.80;;;26.40;97.90;;;;;;5105611;28;20056;-79
2023/07/15 09:46:17;;;;;;;3.30;1.75;;;26.50;97.90;;;;;;5128192;28;20044;-79
2023/07/15 09:48:48;;;;;;;4.95;1.60;;;26.60;98.00;;;;;;5118321;28;20043;-80
2023/07/15 09:51:18;;;;;;;3.28;1.60;;;26.80;97.80;;;;;;5095844;28;20047;-81
2023/07/15 09:53:53;;;;;;;3.65;1.83;;;27.00;97.90;;;;;;5123397;28;20114;-80
2023/07/15 09:56:34;;;;;;;5.90;2.08;;;27.10;97.40;;;;;;5124087;27;20036;-78
2023/07/15 09:59:46;;;;;;;3.35;1.77;;;27.20;97.10;;;;;;5121581;27;20142;-78
2023/07/15 10:02:14;;;;;;;3.78;2.05;;;27.20;97.30;;;;;;5102163;28;20096;-77
2023/07/15 10:04:44;;;;;;;4.18;2.10;;;27.10;97.60;;;;;;5106897;28;20043;-80
2023/07/15 10:07:12;;;;;;;4.07;1.80;;;27.10;97.60;;;;;;5103955;28;20485;-80
2023/07/15 10:09:37;;;;;;;;;;;27.20;97.70;;;;;;5122553;28;20073;-79
2023/07/15 10:12:04;;;;;;;5.15;2.22;;;27.20;97.90;;;;;;5119354;28;19920;-79
2023/07/15 10:14:31;;;;;;;3.67;1.98;;;27.20;97.70;;;;;;5084213;28;20046;-79
2023/07/15 10:17:14;;;;;;;7.00;2.10;;;27.10;97.30;;;;;;5106564;28;20043;-79
2023/07/15 10:19:51;;;;;;;6.45;2.05;;;27.00;97.30;;;;;;5125856;28;20323;-79
2023/07/15 10:22:23;;;;;;;6.65;2.75;;;27.20;97.70;;;;;;5124178;28;20392;-79
2023/07/15 10:24:56;;;;;;;3.40;1.85;;;27.30;97.40;;;;;;5107660;28;20043;-78
2023/07/15 10:27:29;;;;;;;4.95;1.85;;;27.50;97.20;;;;;;5120465;28;20036;-81
2023/07/15 10:30:25;;;;;;;11.05;2.25;;;27.60;96.80;;;;;;5119413;28;20047;-79
2023/07/15 10:33:06;;;;;;;5.70;2.53;;;27.60;96.50;;;;;;5081797;28;20044;-79
2023/07/15 10:35:34;;;;;;;6.00;2.00;;;27.70;97.00;;;;;;5121772;28;20047;-79
2023/07/15 10:38:23;;;;;;;7.25;2.30;;;27.60;96.60;;;;;;5120832;28;20378;-80
2023/07/15 10:41:04;;;;;;;3.08;2.00;;;27.70;96.50;;;;;;5097932;28;20053;-80
2023/07/15 10:43:33;;;;;;;4.78;2.58;;;27.90;96.30;;;;;;5075314;28;20462;-80
2023/07/15 10:46:05;;;;;;;5.72;2.08;;;28.20;96.40;;;;;;5081818;28;20074;-78
2023/07/15 10:48:31;;;;;;;4.28;2.47;;;28.30;96.40;;;;;;5103551;28;20057;-78
2023/07/15 10:50:59;;;;;;;8.77;2.30;;;28.30;96.30;;;;;;5118273;28;20040;-78
2023/07/15 10:53:26;;;;;;;4.63;2.40;;;28.10;96.20;;;;;;5082392;28;20076;-79
2023/07/15 10:56:04;;;;;;;4.45;2.10;;;27.90;95.80;;;;;;5118243;28;20097;-78
2023/07/15 10:58:36;;;;;;;6.38;2.40;;;27.70;95.70;;;;;;5094653;28;20482;-79
2023/07/15 11:01:04;;;;;;;4.85;2.28;;;27.50;96.20;;;;;;5097485;28;20129;-80
2023/07/15 11:03:30;;;;;;;;;;;27.30;96.30;;;;;;5096803;28;20051;-78
2023/07/15 11:06:01;;;;;;;2.92;1.90;;;27.20;95.90;;;;;;5112151;28;19923;-78
2023/07/15 11:08:28;;;;;;;5.00;2.40;;;27.20;96.20;;;;;;5114224;28;20077;-79
2023/07/15 11:11:01;;;;;;;4.20;2.17;;;27.10;96.20;;;;;;5091615;28;20126;-79
2023/07/15 11:13:28;;;;;;;4.82;2.00;;;27.00;96.50;;;;;;5098760;28;20445;-80
2023/07/15 11:15:54;;;;;;;4.57;2.08;;;27.10;96.90;;;;;;5120720;28;20047;-79
2023/07/15 11:18:22;;;;;;;3.65;2.30;;;27.10;97.10;;;;;;5099124;28;20477;-78
2023/07/15 11:20:51;;;;;;;3.83;2.13;;;27.20;96.90;;;;;;5090698;28;20044;-80
2023/07/15 11:23:27;;;;;;;;;;;;;;;;;;;;;
2023/07/15 11:25:54;;;;;;;5.82;2.35;;;27.20;96.80;;;;;;5113971;28;20052;-81
2023/07/15 11:28:19;;;;;;;3.78;2.08;;;27.40;97.10;;;;;;5117900;28;20031;-80
2023/07/15 11:30:47;;;;;;;5.07;2.10;;;27.50;96.80;;;;;;5103244;28;20058;-82
2023/07/15 11:33:13;;;;;;;6.20;2.63;;;27.40;96.50;;;;;;5081609;28;20040;-80
2023/07/15 11:35:41;;;;;;;3.95;2.63;;;27.40;96.50;;;;;;5110551;28;20074;-81
2023/07/15 11:38:10;;;;;;;5.13;1.85;;;27.30;96.80;;;;;;5110525;28;20114;-79
2023/07/15 11:40:56;;;;;;;4.25;2.10;;;27.10;96.40;;;;;;5106282;28;20401;-80
2023/07/15 11:43:27;;;;;;;5.43;1.90;;;27.00;96.20;;;;;;5088130;28;20525;-80
2023/07/15 11:46:00;;;;;;;2.75;1.77;;;26.90;96.80;;;;;;5112292;28;20051;-81
2023/07/15 11:48:28;;;;;;;7.53;1.88;;;26.90;97.00;;;;;;5089620;28;20047;-79
2023/07/15 11:51:07;;;;;;;5.15;2.00;;;26.80;96.90;;;;;;5112559;28;20035;-79
2023/07/15 11:53:35;;;;;;;4.18;1.80;;;26.80;97.20;;;;;;5125760;28;20050;-78
2023/07/15 11:56:01;;;;;;;3.38;1.60;;;26.80;97.20;;;;;;5102473;28;20066;-80
2023/07/15 11:58:53;;;;;;;4.82;2.05;;;26.70;97.40;;;;;;5103118;28;20054;-80
2023/07/15 12:01:25;;;;;;;3.58;1.98;;;26.90;97.80;;;;;;5102360;28;20032;-80
2023/07/15 12:03:51;;;;;;;5.63;1.90;;;26.90;97.10;;;;;;5102726;28;20076;-79
2023/07/15 12:06:17;;;;;;;10.57;2.25;;;27.10;97.00;;;;;;5109867;28;20035;-79
2023/07/15 12:08:58;;;;;;;5.07;1.90;;;27.30;97.00;;;;;;5085391;28;20087;-79
2023/07/15 12:11:23;;;;;;;4.13;1.77;;;27.30;96.50;;;;;;5111809;28;20524;-79
2023/07/15 12:13:49;;;;;;;4.82;1.80;;;27.40;96.00;;;;;;5097550;28;20040;-80
2023/07/15 12:16:17;;;;;;;9.38;2.75;;;27.30;95.40;;;;;;5119535;28;20037;-80
2023/07/15 12:18:43;;;;;;;3.40;1.50;;;27.30;95.80;;;;;;5121406;28;20047;-78
2023/07/15 12:21:09;;;;;;;3.67;1.60;;;27.60;96.20;;;;;;5103075;28;20493;-79
2023/07/15 12:23:34;;;;;;;3.40;1.75;;;28.10;96.50;;;;;;5124221;28;20099;-80
2023/07/15 12:26:00;;;;;;;2.55;1.50;;;28.50;96.10;;;;;;5105680;28;20469;-80
2023/07/15 12:28:26;;;;;;;6.72;1.70;;;28.70;95.60;;;;;;5098020;28;20161;-80
2023/07/15 12:30:54;;;;;;;2.80;1.60;;;28.70;95.00;;;;;;5111358;28;20043;-80
2023/07/15 12:33:20;;;;;;;5.38;1.63;;;28.80;95.20;;;;;;5086680;28;20121;-81
2023/07/15 12:35:46;;;;;;;4.05;1.75;;;29.00;95.20;;;;;;5115695;28;20090;-79
2023/07/15 12:38:13;;;;;;;2.72;1.50;;;29.00;94.40;;;;;;5102999;28;20048;-79
2023/07/15 12:40:38;;;;;;;4.87;2.20;;;29.10;94.50;;;;;;5103655;28;20043;-79
2023/07/15 12:43:04;;;;;;;5.25;1.92;;;29.00;94.60;;;;;;5085894;28;20500;-80
2023/07/15 12:45:29;;;;;;;3.45;1.80;;;28.80;94.50;;;;;;5097099;28;20115;-81
2023/07/15 12:47:55;;;;;;;5.13;2.03;;;28.70;94.50;;;;;;5095795;28;20047;-79
2023/07/15 12:50:21;;;;;;;7.00;1.80;;;28.60;94.70;;;;;;5112927;28;20097;-79
2023/07/15 12:52:46;;;;;;;4.25;1.90;;;28.70;94.60;;;;;;5113476;28;20044;-81